Time;durP1;ratioP1;P1;durP2;ratioP2;P2;SDS_P1;SDS_P2;PMS_P1;PMS_P2;Temp;Humidity;BMP_temperature;BMP_pressure;BME280_temperature;BME280_humidity;BME280_pressure;Samples;Min_cycle;Max_cycle;Signal;HPM_P1;HPM_P2
2023/04/17 00:00:34;;;;;;;10.47;9.77;;;;;;;11.35;94.13;92114.00;5110927;28;20235;-75
2023/04/17 00:03:00;;;;;;;10.80;9.90;;;;;;;11.51;94.13;92121.50;5110991;28;20251;-75
2023/04/17 00:05:26;;;;;;;10.87;10.13;;;;;;;11.30;94.46;92095.81;5111019;28;20306;-75
2023/04/17 00:07:53;;;;;;;9.40;8.80;;;;;;;11.49;94.46;92115.81;5110360;28;20188;-75
2023/04/17 00:10:18;;;;;;;9.73;9.13;;;;;;;11.46;94.76;92113.78;5110871;28;20234;-75
2023/04/17 00:12:44;;;;;;;9.83;9.23;;;;;;;11.23;95.26;92090.25;5112331;28;20619;-74
2023/04/17 00:15:09;;;;;;;10.20;9.57;;;;;;;11.18;96.02;92102.63;5110962;28;20291;-75
2023/04/17 00:17:35;;;;;;;9.97;9.27;;;;;;;11.30;95.80;92111.50;5110956;28;20184;-75
2023/04/17 00:20:00;;;;;;;9.93;9.33;;;;;;;11.50;93.93;92115.53;5109561;28;20234;-75
2023/04/17 00:22:26;;;;;;;10.43;9.63;;;;;;;11.42;94.77;92110.22;5111456;28;20217;-74
2023/04/17 00:24:51;;;;;;;11.43;10.73;;;;;;;11.37;95.73;92111.09;5111371;28;20239;-75
2023/04/17 00:27:16;;;;;;;10.27;9.67;;;;;;;11.28;96.23;92118.84;5110722;28;20953;-75
2023/04/17 00:29:42;;;;;;;10.00;9.50;;;;;;;11.21;96.52;92108.06;5113011;28;20235;-75
2023/04/17 00:32:07;;;;;;;9.47;8.90;;;;;;;11.38;96.36;92120.47;5110283;28;20214;-75
2023/04/17 00:34:33;;;;;;;10.37;9.80;;;;;;;11.34;96.15;92117.72;5112183;28;20246;-75
2023/04/17 00:36:58;;;;;;;9.43;8.83;;;;;;;11.49;95.42;92115.81;5110873;28;20196;-75
2023/04/17 00:39:24;;;;;;;10.87;10.17;;;;;;;11.45;94.94;92118.25;5110630;28;20251;-75
2023/04/17 00:41:49;;;;;;;9.67;9.17;;;;;;;11.32;95.44;92111.22;5111826;28;20208;-75
2023/04/17 00:44:15;;;;;;;9.93;9.33;;;;;;;11.35;95.63;92116.63;5110237;28;20282;-75
2023/04/17 00:46:40;;;;;;;10.10;9.30;;;;;;;11.17;96.61;92096.63;5109847;28;20204;-75
2023/04/17 00:49:07;;;;;;;11.13;10.13;;;;;;;11.31;95.53;92115.66;5112836;28;21287;-75
2023/04/17 00:51:33;;;;;;;10.57;9.47;;;;;;;11.21;93.47;92117.72;5110883;28;20213;-75
2023/04/17 00:53:59;;;;;;;11.87;10.53;;;;;;;11.31;91.63;92120.13;5111395;28;20176;-75
2023/04/17 00:56:25;;;;;;;11.20;10.07;;;;;;;11.29;90.76;92115.19;5110726;28;20226;-74
2023/04/17 00:58:50;;;;;;;11.47;10.43;;;;;;;11.29;89.54;92099.53;5110639;28;20236;-75
2023/04/17 01:01:16;;;;;;;12.20;10.97;;;;;;;11.43;89.59;92111.75;5108322;28;20220;-75
2023/04/17 01:03:42;;;;;;;11.63;10.47;;;;;;;11.37;89.14;92121.56;5111203;28;20204;-75
2023/04/17 01:06:08;;;;;;;18.20;11.87;;;;;;;11.39;88.37;92112.34;5109603;28;20223;-75
2023/04/17 01:08:41;;;;;;;12.33;10.80;;;;;;;11.33;87.66;92108.31;5111764;28;20264;-75
2023/04/17 01:11:08;;;;;;;11.70;10.57;;;;;;;11.31;88.37;92118.25;5109550;28;20231;-75
2023/04/17 01:13:33;;;;;;;10.77;9.93;;;;;;;11.45;87.63;92117.47;5110359;28;20246;-75
2023/04/17 01:15:58;;;;;;;13.97;10.77;;;;;;;11.48;87.36;92106.41;5109448;28;20227;-75
2023/04/17 01:18:24;;;;;;;13.43;12.13;;;;;;;11.46;87.16;92105.94;5110157;28;20194;-74
2023/04/17 01:20:49;;;;;;;12.57;11.43;;;;;;;11.48;87.15;92109.81;5109486;28;20303;-75
2023/04/17 01:23:15;;;;;;;13.67;11.57;;;;;;;11.49;85.83;92113.97;5110140;28;20235;-74
2023/04/17 01:25:40;;;;;;;16.70;12.50;;;;;;;11.51;85.96;92111.06;5110098;28;20838;-75
2023/04/17 01:28:06;;;;;;;13.07;12.03;;;;;;;11.35;87.43;92111.41;5109772;28;20216;-75
2023/04/17 01:30:31;;;;;;;11.43;10.30;;;;;;;11.16;88.19;92110.75;5109413;28;20223;-75
2023/04/17 01:32:56;;;;;;;13.07;10.50;;;;;;;11.31;87.57;92117.50;5109350;28;20176;-75
2023/04/17 01:35:22;;;;;;;12.00;10.77;;;;;;;11.12;87.47;92101.97;5109968;28;20291;-75
2023/04/17 01:37:47;;;;;;;16.20;11.27;;;;;;;11.21;88.28;92110.66;5109825;28;20195;-71
2023/04/17 01:40:13;;;;;;;12.40;11.17;;;;;;;11.24;87.96;92109.28;5109492;28;20893;-71
2023/04/17 01:42:38;;;;;;;11.47;10.63;;;;;;;11.14;87.64;92101.69;5110387;28;20927;-71
2023/04/17 01:45:05;;;;;;;14.13;11.33;;;;;;;11.17;88.06;92086.16;5108834;28;20215;-72
2023/04/17 01:47:30;;;;;;;12.43;11.50;;;;;;;10.93;89.03;92083.03;5109954;28;20187;-71
2023/04/17 01:49:56;;;;;;;13.97;11.57;;;;;;;10.97;88.45;92070.94;5112320;28;20243;-71
2023/04/17 01:52:21;;;;;;;12.57;11.60;;;;;;;11.09;87.44;92089.50;5109899;28;20212;-71
2023/04/17 01:54:46;;;;;;;13.73;10.23;;;;;;;11.26;86.65;92084.44;5109238;28;20233;-71
2023/04/17 01:57:12;;;;;;;13.07;11.93;;;;;;;11.24;86.34;92078.72;5110674;28;20207;-71
2023/04/17 01:59:37;;;;;;;13.13;12.03;;;;;;;11.19;86.26;92070.22;5109471;28;20217;-71
2023/04/17 02:02:02;;;;;;;13.50;12.17;;;;;;;11.31;85.86;92071.22;5109898;28;20236;-71
2023/04/17 02:04:28;;;;;;;12.80;11.67;;;;;;;11.34;85.34;92075.88;5108645;28;20191;-71
2023/04/17 02:06:53;;;;;;;13.10;11.87;;;;;;;11.35;85.42;92072.19;5109337;28;20189;-71
2023/04/17 02:09:19;;;;;;;12.77;11.67;;;;;;;11.19;86.49;92057.16;5109889;28;20189;-71
2023/04/17 02:11:44;;;;;;;13.77;12.00;;;;;;;11.20;86.38;92059.50;5108976;28;20289;-72
2023/04/17 02:14:10;;;;;;;11.93;11.03;;;;;;;11.25;86.18;92066.44;5110262;28;20196;-69
2023/04/17 02:16:36;;;;;;;13.07;11.87;;;;;;;11.21;86.68;92057.63;5110049;28;20243;-71
2023/04/17 02:19:01;;;;;;;13.07;11.77;;;;;;;11.16;86.71;92055.91;5108423;28;20192;-71
2023/04/17 02:21:27;;;;;;;14.10;12.60;;;;;;;11.23;86.46;92063.34;5109221;28;20279;-71
2023/04/17 02:23:52;;;;;;;13.80;11.83;;;;;;;11.28;86.60;92055.38;5111014;28;20206;-72
2023/04/17 02:26:18;;;;;;;12.23;11.13;;;;;;;11.34;86.47;92062.03;5108866;28;20245;-71
2023/04/17 02:28:44;;;;;;;11.83;10.83;;;;;;;11.32;86.87;92061.56;5112011;28;20203;-71
2023/04/17 02:31:11;;;;;;;12.53;11.57;;;;;;;11.31;88.11;92060.03;5113102;28;20238;-71
2023/04/17 02:33:37;;;;;;;13.70;12.70;;;;;;;11.25;88.18;92045.53;5112651;28;20195;-71
2023/04/17 02:36:06;;;;;;;14.10;13.00;;;;;;;11.28;89.03;92063.22;5112771;28;20272;-71
2023/04/17 02:38:32;;;;;;;13.80;12.60;;;;;;;11.25;89.13;92053.38;5112930;28;20180;-71
2023/04/17 02:40:58;;;;;;;14.17;11.67;;;;;;;11.22;89.74;92069.63;5113186;28;20224;-71
2023/04/17 02:43:23;;;;;;;14.77;13.23;;;;;;;11.19;90.09;92060.53;5113460;28;20218;-70
2023/04/17 02:45:50;;;;;;;14.27;12.80;;;;;;;11.21;90.29;92061.03;5114102;28;20228;-71
2023/04/17 02:48:16;;;;;;;12.87;11.80;;;;;;;11.18;90.67;92068.66;5113039;28;20192;-71
2023/04/17 02:50:41;;;;;;;13.60;12.30;;;;;;;11.20;90.61;92063.94;5114191;28;20237;-71
2023/04/17 02:53:07;;;;;;;15.13;10.80;;;;;;;11.22;90.69;92067.03;5113407;28;20196;-71
2023/04/17 02:55:33;;;;;;;12.70;11.47;;;;;;;10.84;90.80;92024.75;5113319;28;20279;-71
2023/04/17 02:57:58;;;;;;;12.40;11.50;;;;;;;11.23;90.73;92066.72;5112924;28;20188;-71
2023/04/17 03:00:25;;;;;;;15.03;12.33;;;;;;;11.12;91.18;92073.25;5112429;28;20229;-71
2023/04/17 03:02:51;;;;;;;13.80;12.47;;;;;;;11.05;91.90;92072.09;5114534;28;20248;-71
2023/04/17 03:05:19;;;;;;;14.33;12.67;;;;;;;11.11;91.69;92070.94;5112632;28;20249;-71
2023/04/17 03:07:44;;;;;;;16.80;12.13;;;;;;;11.04;91.57;92055.66;5112148;28;20186;-70
2023/04/17 03:10:10;;;;;;;14.77;12.70;;;;;;;10.97;92.18;92050.03;5112916;28;20262;-71
2023/04/17 03:12:36;;;;;;;20.10;12.27;;;;;;;11.19;91.26;92070.97;5129161;27;20184;-71
2023/04/17 03:15:01;;;;;;;12.93;10.97;;;;;;;11.14;90.85;92072.94;5113151;28;20301;-71
2023/04/17 03:17:26;;;;;;;12.70;11.47;;;;;;;10.97;91.16;92064.97;5112446;28;20186;-71
2023/04/17 03:19:52;;;;;;;13.17;11.77;;;;;;;11.10;90.52;92077.19;5112193;28;20221;-71
2023/04/17 03:22:17;;;;;;;11.37;10.33;;;;;;;11.11;90.36;92061.22;5112508;28;20221;-71
2023/04/17 03:24:43;;;;;;;17.27;12.70;;;;;;;11.11;90.42;92076.16;5113079;28;20235;-71
2023/04/17 03:27:08;;;;;;;17.67;11.77;;;;;;;11.10;90.73;92080.59;5112064;28;20259;-71
2023/04/17 03:29:34;;;;;;;12.63;11.37;;;;;;;11.09;90.69;92068.59;5111352;28;20180;-71
2023/04/17 03:31:59;;;;;;;13.63;12.17;;;;;;;11.14;90.13;92071.09;5113127;28;20261;-71
2023/04/17 03:34:25;;;;;;;16.50;10.77;;;;;;;11.17;89.03;92073.09;5112860;28;20180;-72
2023/04/17 03:36:50;;;;;;;13.63;11.87;;;;;;;11.03;89.49;92064.56;5111758;28;20204;-71
2023/04/17 03:39:16;;;;;;;13.13;12.00;;;;;;;11.14;88.53;92070.34;5112279;28;20215;-71
2023/04/17 03:41:41;;;;;;;12.03;10.93;;;;;;;11.21;87.74;92078.53;5109198;28;20245;-70
2023/04/17 03:44:07;;;;;;;13.03;11.80;;;;;;;11.06;87.57;92071.81;5113286;28;20183;-71
2023/04/17 03:46:33;;;;;;;12.77;11.37;;;;;;;11.23;86.60;92085.03;5112318;28;20237;-71
2023/04/17 03:48:59;;;;;;;11.43;10.17;;;;;;;11.14;86.70;92088.63;5112290;28;21063;-72
2023/04/17 03:51:26;;;;;;;13.63;12.33;;;;;;;11.09;86.75;92068.59;5111840;28;20255;-72
2023/04/17 03:53:51;;;;;;;13.27;12.07;;;;;;;11.04;87.66;92071.31;5112101;28;20192;-71
2023/04/17 03:56:17;;;;;;;12.60;11.13;;;;;;;11.10;88.47;92083.22;5111514;28;20237;-71
2023/04/17 03:58:42;;;;;;;18.57;13.33;;;;;;;11.10;89.14;92087.66;5111940;28;20253;-71
2023/04/17 04:01:09;;;;;;;25.33;13.23;;;;;;;11.02;89.22;92086.50;5111155;28;20208;-71
2023/04/17 04:03:35;;;;;;;12.67;11.57;;;;;;;11.11;88.88;92092.56;5113085;28;20211;-71
2023/04/17 04:06:01;;;;;;;12.77;11.67;;;;;;;11.01;89.26;92087.59;5111715;28;20255;-71
2023/04/17 04:08:26;;;;;;;13.43;12.33;;;;;;;11.10;88.80;92091.03;5111145;28;20176;-71
2023/04/17 04:10:52;;;;;;;12.77;11.47;;;;;;;11.02;89.27;92086.50;5111658;28;20236;-72
2023/04/17 04:13:17;;;;;;;13.13;11.83;;;;;;;11.14;88.68;92092.00;5110714;28;20265;-70
2023/04/17 04:15:42;;;;;;;11.70;10.90;;;;;;;11.15;88.99;92083.09;5110993;28;20219;-71
2023/04/17 04:18:08;;;;;;;14.63;13.13;;;;;;;11.34;88.00;92088.97;5112738;28;20192;-71
2023/04/17 04:20:33;;;;;;;14.43;12.97;;;;;;;11.24;88.73;92083.94;5110445;28;20310;-72
2023/04/17 04:22:59;;;;;;;53.07;24.17;;;;;;;11.22;88.52;92083.47;5111935;28;20242;-72
2023/04/17 04:25:25;;;;;;;35.33;19.47;;;;;;;11.23;88.15;92079.78;5110620;28;20241;-74
2023/04/17 04:27:51;;;;;;;18.97;15.57;;;;;;;11.10;88.56;92064.91;5111279;28;20202;-75
2023/04/17 04:30:17;;;;;;;16.33;13.27;;;;;;;11.33;87.87;92091.88;5110009;28;20225;-74
2023/04/17 04:32:44;;;;;;;16.80;14.13;;;;;;;11.20;87.96;92074.38;5110551;28;20242;-75
2023/04/17 04:35:13;;;;;;;13.67;12.43;;;;;;;11.38;87.92;92095.13;5110689;28;20231;-75
2023/04/17 04:37:41;;;;;;;15.37;12.13;;;;;;;11.23;86.93;92060.72;5110767;28;20188;-75
2023/04/17 04:40:11;;;;;;;12.63;11.33;;;;;;;11.47;86.52;92103.03;5110686;28;20229;-75
2023/04/17 04:42:38;;;;;;;12.27;11.27;;;;;;;11.54;85.54;92092.16;5111756;28;20196;-75
2023/04/17 04:45:04;;;;;;;13.63;12.47;;;;;;;11.58;85.51;92100.97;5108979;28;20248;-74
2023/04/17 04:47:30;;;;;;;12.87;11.60;;;;;;;11.68;84.89;92100.75;5110329;28;21027;-74
2023/04/17 04:49:55;;;;;;;15.73;13.03;;;;;;;11.67;85.18;92105.22;5109445;28;20240;-74
2023/04/17 04:52:21;;;;;;;14.23;12.40;;;;;;;11.68;84.14;92090.28;5110660;28;20218;-74
2023/04/17 04:54:46;;;;;;;12.20;11.00;;;;;;;11.73;84.09;92101.44;5111214;28;20237;-74
2023/04/17 04:57:11;;;;;;;13.57;12.20;;;;;;;11.76;84.31;92103.44;5111546;28;20184;-74
2023/04/17 04:59:37;;;;;;;15.17;11.20;;;;;;;11.64;84.50;92089.34;5108713;28;20257;-74
2023/04/17 05:02:02;;;;;;;12.70;11.40;;;;;;;11.68;84.66;92101.53;5109981;28;20258;-74
2023/04/17 05:04:27;;;;;;;19.67;12.60;;;;;;;11.81;84.25;92111.19;5109856;28;20189;-74
2023/04/17 05:06:53;;;;;;;11.47;10.47;;;;;;;11.66;83.54;92077.53;5110564;28;20198;-75
2023/04/17 05:09:18;;;;;;;12.93;11.37;;;;;;;11.91;83.02;92116.16;5112853;28;20214;-73
2023/04/17 05:11:43;;;;;;;12.27;11.17;;;;;;;11.99;82.18;92114.66;5110033;28;20247;-74
2023/04/17 05:14:09;;;;;;;13.93;12.53;;;;;;;12.06;82.49;92109.78;5109755;28;20211;-74
2023/04/17 05:16:35;;;;;;;13.37;11.67;;;;;;;11.94;82.63;92110.31;5109428;28;20288;-75
2023/04/17 05:19:00;;;;;;;11.70;10.63;;;;;;;11.89;82.56;92113.06;5110624;28;20191;-74
2023/04/17 05:21:26;;;;;;;14.13;12.43;;;;;;;12.16;81.22;92117.38;5111289;28;20231;-74
2023/04/17 05:23:52;;;;;;;12.60;11.40;;;;;;;12.08;80.74;92115.47;5110932;28;20218;-75
2023/04/17 05:26:20;;;;;;;12.97;11.93;;;;;;;11.75;81.01;92074.97;5110067;28;20234;-69
2023/04/17 05:28:46;;;;;;;12.50;11.40;;;;;;;11.81;81.18;92052.88;5104548;28;20188;-68
2023/04/17 05:31:11;;;;;;;12.63;11.63;;;;;;;12.15;81.33;92106.16;5108836;28;20244;-74
2023/04/17 05:33:37;;;;;;;12.97;11.77;;;;;;;12.20;80.08;92100.03;5108292;28;20195;-74
2023/04/17 05:36:02;;;;;;;16.10;13.43;;;;;;;12.23;78.94;92102.78;5108552;28;20220;-74
2023/04/17 05:38:28;;;;;;;15.07;11.37;;;;;;;12.24;79.30;92114.03;5109540;28;20196;-74
2023/04/17 05:40:53;;;;;;;11.77;10.77;;;;;;;11.99;81.11;92101.56;5107942;28;20231;-73
2023/04/17 05:43:18;;;;;;;14.17;12.87;;;;;;;12.14;79.40;92111.69;5109233;28;20215;-74
2023/04/17 05:45:44;;;;;;;13.93;12.53;;;;;;;12.02;78.63;92088.69;5108409;28;20227;-74
2023/04/17 05:48:09;;;;;;;14.00;12.77;;;;;;;12.00;79.20;92100.53;5106571;28;20203;-74
2023/04/17 05:50:36;;;;;;;12.90;11.60;;;;;;;11.84;79.80;92104.56;5109853;28;20213;-73
2023/04/17 05:53:01;;;;;;;42.57;29.03;;;;;;;11.92;79.31;92117.69;5107796;28;20184;-74
2023/04/17 05:55:27;;;;;;;38.77;29.77;;;;;;;11.69;80.29;92104.94;5107846;28;20261;-74
2023/04/17 05:57:52;;;;;;;21.03;18.13;;;;;;;11.91;79.23;92120.59;5108117;28;20280;-74
2023/04/17 06:00:21;;;;;;;15.97;13.70;;;;;;;12.08;78.66;92123.31;5109863;28;20259;-74
2023/04/17 06:02:47;;;;;;;20.23;14.20;;;;;;;12.21;77.13;92128.50;5109339;28;20242;-74
2023/04/17 06:05:12;;;;;;;16.17;14.00;;;;;;;12.12;80.08;92121.69;5111945;28;20223;-74
2023/04/17 06:07:39;;;;;;;15.43;11.93;;;;;;;12.02;82.56;92127.91;5112561;28;20203;-74
2023/04/17 06:10:05;;;;;;;12.70;11.70;;;;;;;11.66;84.79;92108.91;5112481;28;20250;-74
2023/04/17 06:12:31;;;;;;;12.60;11.57;;;;;;;11.54;85.52;92113.06;5113896;28;20242;-74
2023/04/17 06:14:56;;;;;;;13.00;11.97;;;;;;;11.66;85.78;92123.84;5112271;28;20231;-74
2023/04/17 06:17:22;;;;;;;12.70;11.57;;;;;;;11.63;86.66;92134.84;5109994;28;20188;-74
2023/04/17 06:19:47;;;;;;;12.97;12.00;;;;;;;11.54;86.71;92115.69;5112292;28;20223;-73
2023/04/17 06:22:13;;;;;;;13.83;12.20;;;;;;;11.72;86.25;92133.09;5112308;28;20722;-74
2023/04/17 06:24:38;;;;;;;14.00;12.80;;;;;;;11.70;86.12;92140.47;5112858;28;20184;-74
2023/04/17 06:27:04;;;;;;;13.30;12.13;;;;;;;11.75;86.18;92140.34;5112583;28;20231;-73
2023/04/17 06:29:29;;;;;;;19.53;15.57;;;;;;;11.73;86.00;92145.09;5111591;28;20192;-75
2023/04/17 06:31:55;;;;;;;14.50;13.07;;;;;;;11.93;85.06;92145.41;5112380;28;20276;-73
2023/04/17 06:34:20;;;;;;;13.87;12.47;;;;;;;12.00;85.35;92152.84;5110843;28;20186;-73
2023/04/17 06:36:46;;;;;;;14.77;13.20;;;;;;;12.05;85.22;92139.63;5111740;28;20201;-68
2023/04/17 06:39:12;;;;;;;15.00;13.33;;;;;;;12.15;85.22;92152.47;5111689;28;20849;-68
2023/04/17 06:41:37;;;;;;;14.30;12.63;;;;;;;12.21;84.66;92146.03;5111635;28;20219;-67
2023/04/17 06:44:03;;;;;;;16.33;13.10;;;;;;;12.52;82.84;92152.06;5113026;28;20194;-68
2023/04/17 06:46:28;;;;;;;14.57;12.73;;;;;;;12.55;82.61;92154.06;5110392;28;20245;-71
2023/04/17 06:48:56;;;;;;;13.43;11.73;;;;;;;12.82;82.45;92151.28;5111901;28;20223;-71
2023/04/17 06:51:24;;;;;;;13.00;12.10;;;;;;;12.81;81.37;92149.72;5111419;28;20225;-78
2023/04/17 06:53:49;;;;;;;14.60;13.07;;;;;;;12.70;80.78;92138.00;5112684;28;20194;-75
2023/04/17 06:56:15;;;;;;;16.03;13.13;;;;;;;12.45;79.70;92136.03;5111686;28;20259;-76
2023/04/17 06:58:44;;;;;;;14.43;12.80;;;;;;;12.48;79.55;92143.28;5112839;28;20187;-75
2023/04/17 07:01:13;;;;;;;20.23;15.53;;;;;;;12.72;77.60;92157.56;5110618;28;20228;-71
2023/04/17 07:03:39;;;;;;;14.23;13.03;;;;;;;12.76;76.86;92155.88;5109375;28;20212;-72
2023/04/17 07:06:05;;;;;;;17.63;14.90;;;;;;;12.80;76.23;92156.81;5110195;28;20239;-68
2023/04/17 07:08:30;;;;;;;17.57;13.33;;;;;;;12.81;75.61;92147.88;5109494;28;20196;-72
2023/04/17 07:10:56;;;;;;;14.47;13.33;;;;;;;12.90;75.89;92147.94;5109661;28;20227;-72
2023/04/17 07:13:21;;;;;;;13.47;12.23;;;;;;;13.04;75.34;92160.94;5111542;28;20191;-70
2023/04/17 07:15:54;;;;;;;16.07;12.50;;;;;;;13.09;75.96;92156.31;5110643;28;20211;-70
2023/04/17 07:18:24;;;;;;;14.57;13.10;;;;;;;12.98;76.05;92159.50;5111175;28;20191;-71
2023/04/17 07:20:50;;;;;;;14.90;12.90;;;;;;;13.11;75.83;92161.25;5111728;28;20220;-70
2023/04/17 07:23:15;;;;;;;13.83;12.13;;;;;;;13.32;75.94;92165.66;5109419;28;20220;-71
2023/04/17 07:25:40;;;;;;;19.93;17.73;;;;;;;13.56;73.28;92152.88;5110693;28;20230;-72
2023/04/17 07:28:06;;;;;;;17.17;12.73;;;;;;;13.83;72.67;92178.84;5112320;28;20204;-73
2023/04/17 07:30:32;;;;;;;13.93;12.60;;;;;;;14.12;70.94;92167.69;5107727;28;20282;-71
2023/04/17 07:32:57;;;;;;;13.77;12.67;;;;;;;14.44;68.40;92170.63;5109888;28;20271;-70
2023/04/17 07:35:23;;;;;;;14.03;12.93;;;;;;;15.01;67.28;92165.03;5109406;28;20223;-71
2023/04/17 07:37:48;;;;;;;13.13;11.70;;;;;;;15.27;65.37;92160.47;5110830;28;20195;-70
2023/04/17 07:40:15;;;;;;;12.77;11.77;;;;;;;15.27;64.55;92173.59;5110081;28;20227;-71
2023/04/17 07:42:41;;;;;;;13.07;11.73;;;;;;;15.17;64.25;92176.59;5110355;28;20642;-70
2023/04/17 07:45:07;;;;;;;12.43;11.43;;;;;;;15.14;64.82;92171.97;5108041;28;20255;-70
2023/04/17 07:47:32;;;;;;;14.07;12.63;;;;;;;15.27;65.19;92176.25;5109728;28;20212;-71
2023/04/17 07:49:58;;;;;;;14.77;13.27;;;;;;;15.33;67.96;92167.06;5110303;28;20227;-70
2023/04/17 07:52:23;;;;;;;17.70;12.70;;;;;;;15.12;68.83;92179.38;5108315;28;20196;-70
2023/04/17 07:54:48;;;;;;;14.50;13.13;;;;;;;15.00;69.76;92156.41;5109815;28;20258;-70
2023/04/17 07:57:14;;;;;;;12.23;11.13;;;;;;;14.88;65.68;92174.66;5110896;28;20188;-71
2023/04/17 07:59:40;;;;;;;12.70;11.40;;;;;;;14.88;67.54;92179.19;5109037;28;20895;-72
2023/04/17 08:02:06;;;;;;;13.97;12.33;;;;;;;14.74;70.12;92179.34;5110452;28;20262;-70
2023/04/17 08:04:32;;;;;;;18.27;16.30;;;;;;;14.39;70.82;92168.19;5109374;28;20191;-72
2023/04/17 08:06:57;;;;;;;16.53;14.73;;;;;;;14.16;73.82;92179.13;5100543;28;20200;-71
2023/04/17 08:09:23;;;;;;;16.67;13.33;;;;;;;14.08;74.37;92180.69;5109408;28;20203;-71
2023/04/17 08:11:48;;;;;;;13.40;12.43;;;;;;;14.05;79.46;92189.19;5113350;28;20207;-72
2023/04/17 08:14:15;;;;;;;15.43;13.13;;;;;;;13.99;76.73;92182.53;5111335;28;20271;-73
2023/04/17 08:16:40;;;;;;;14.97;13.50;;;;;;;13.79;78.30;92148.28;5112544;28;20232;-72
2023/04/17 08:19:06;;;;;;;14.37;13.03;;;;;;;14.05;77.61;92172.66;5111445;28;20280;-72
2023/04/17 08:21:31;;;;;;;14.47;13.37;;;;;;;14.12;77.73;92171.09;5110174;28;20245;-74
2023/04/17 08:23:57;;;;;;;13.60;12.50;;;;;;;14.34;77.34;92188.56;5112627;28;20213;-73
2023/04/17 08:26:22;;;;;;;16.73;14.93;;;;;;;14.43;77.69;92182.22;5109082;28;20223;-74
2023/04/17 08:28:47;;;;;;;17.10;15.30;;;;;;;14.05;79.22;92162.94;5110670;28;20186;-71
2023/04/17 08:31:13;;;;;;;15.73;14.13;;;;;;;13.61;79.01;92134.38;5111867;28;20208;-70
2023/04/17 08:33:38;;;;;;;16.60;13.33;;;;;;;13.68;81.41;92179.25;5107555;28;20225;-72
2023/04/17 08:36:04;;;;;;;14.00;12.63;;;;;;;13.25;84.64;92173.19;5110322;28;20219;-71
2023/04/17 08:38:30;;;;;;;14.80;13.30;;;;;;;12.82;87.18;92138.19;5110957;28;20172;-70
2023/04/17 08:41:01;;;;;;;15.67;14.03;;;;;;;12.98;88.40;92181.22;5111595;28;20229;-75
2023/04/17 08:43:28;;;;;;;16.10;14.67;;;;;;;13.05;89.64;92184.22;5110243;28;20227;-74
2023/04/17 08:45:54;;;;;;;15.57;13.93;;;;;;;13.27;90.62;92183.34;5109657;28;20235;-74
2023/04/17 08:48:21;;;;;;;15.80;13.93;;;;;;;13.44;89.08;92176.31;5110056;28;20188;-72
2023/04/17 08:50:48;;;;;;;16.87;14.50;;;;;;;13.37;87.93;92155.00;5109841;28;20216;-72
2023/04/17 08:53:15;;;;;;;16.57;14.93;;;;;;;13.69;89.21;92187.91;5109547;28;20206;-71
2023/04/17 08:55:41;;;;;;;20.10;15.07;;;;;;;13.98;90.88;92193.31;5110451;28;20223;-71
2023/04/17 08:58:07;;;;;;;14.73;13.33;;;;;;;14.28;87.22;92187.97;5109474;28;20218;-74
2023/04/17 09:00:38;;;;;;;13.67;12.37;;;;;;;14.27;82.90;92190.91;5110290;28;20219;-74
2023/04/17 09:03:09;;;;;;;15.17;13.87;;;;;;;14.10;86.08;92189.00;5122992;28;20303;-69
2023/04/17 09:05:37;;;;;;;14.33;12.97;;;;;;;14.34;81.01;92197.22;5105734;28;20231;-68
2023/04/17 09:08:06;;;;;;;16.37;13.27;;;;;;;14.67;80.78;92194.84;5113040;28;20191;-74
2023/04/17 09:10:40;;;;;;;14.60;13.37;;;;;;;14.79;81.35;92188.91;5108885;28;20220;-72
2023/04/17 09:13:07;;;;;;;36.13;21.03;;;;;;;14.62;79.84;92175.84;5109082;28;20176;-70
2023/04/17 09:15:33;;;;;;;28.30;19.60;;;;;;;14.30;78.98;92190.28;5105981;28;20232;-69
2023/04/17 09:17:59;;;;;;;21.10;16.17;;;;;;;14.43;77.77;92184.84;5105156;28;20191;-70
2023/04/17 09:20:24;;;;;;;20.17;18.00;;;;;;;14.29;77.99;92175.59;5107569;28;20216;-70
2023/04/17 09:22:58;;;;;;;15.77;14.47;;;;;;;14.55;78.72;92197.34;5108471;28;20818;-72
2023/04/17 09:25:25;;;;;;;13.57;12.37;;;;;;;14.11;78.68;92160.91;5108276;28;20230;-72
2023/04/17 09:27:50;;;;;;;15.10;13.97;;;;;;;14.71;76.27;92184.50;5107767;28;20189;-67
2023/04/17 09:30:16;;;;;;;13.80;12.80;;;;;;;14.72;75.03;92194.69;5107931;28;20235;-68
2023/04/17 09:32:41;;;;;;;18.07;13.30;;;;;;;14.24;75.56;92192.28;5109240;28;20184;-68
2023/04/17 09:35:07;;;;;;;13.53;12.23;;;;;;;13.13;81.49;92183.47;5108142;28;20227;-68
2023/04/17 09:37:55;;;;;;;14.80;13.27;;;;;;;13.05;81.83;92193.91;5109292;28;20192;-69
2023/04/17 09:40:22;;;;;;;15.83;14.03;;;;;;;13.16;81.88;92192.56;5107564;28;20236;-69
2023/04/17 09:43:02;;;;;;;17.40;15.60;;;;;;;13.02;81.71;92197.94;5108594;28;20200;-70
2023/04/17 09:45:34;;;;;;;15.67;13.10;;;;;;;12.80;85.48;92205.81;5107515;28;20231;-70
2023/04/17 09:48:04;;;;;;;20.83;18.53;;;;;;;12.87;86.19;92179.97;5106973;28;20195;-71
2023/04/17 09:50:31;;;;;;;16.63;14.93;;;;;;;13.11;89.48;92196.09;5107699;28;20228;-70
2023/04/17 09:52:57;;;;;;;16.30;14.70;;;;;;;13.30;87.83;92194.00;5103757;28;20203;-70
2023/04/17 09:55:28;;;;;;;15.47;14.17;;;;;;;13.35;89.60;92191.25;5107555;28;20220;-69
2023/04/17 09:57:54;;;;;;;16.43;13.07;;;;;;;13.44;88.10;92194.66;5107714;28;20231;-77
2023/04/17 10:00:25;;;;;;;14.07;12.97;;;;;;;13.60;87.29;92193.16;5110219;28;20211;-79
2023/04/17 10:02:51;;;;;;;15.37;12.50;;;;;;;13.90;87.02;92171.25;5109601;28;20257;-79
2023/04/17 10:05:21;;;;;;;13.80;12.57;;;;;;;14.17;82.55;92193.78;5109477;28;20231;-79
2023/04/17 10:07:47;;;;;;;14.33;12.53;;;;;;;13.55;81.87;92182.81;5108434;28;20283;-81
2023/04/17 10:10:32;;;;;;;12.47;11.53;;;;;;;13.68;82.25;92179.25;5108039;28;20216;-83
2023/04/17 10:13:00;;;;;;;13.20;12.27;;;;;;;13.99;79.84;92179.91;5107767;28;20200;-80
2023/04/17 10:15:26;;;;;;;13.63;12.43;;;;;;;14.15;77.22;92174.94;5108158;28;20235;-80
2023/04/17 10:17:55;;;;;;;14.20;12.90;;;;;;;14.21;78.23;92171.09;5108003;28;20179;-81
2023/04/17 10:20:31;;;;;;;13.43;12.40;;;;;;;14.55;73.65;92180.81;5107758;28;20315;-81
2023/04/17 10:22:57;;;;;;;13.73;12.63;;;;;;;14.35;74.51;92180.38;5107598;28;20245;-80
2023/04/17 10:25:27;;;;;;;13.17;12.07;;;;;;;14.21;73.06;92176.34;5108418;28;20216;-81
2023/04/17 10:27:54;;;;;;;13.00;11.90;;;;;;;14.34;73.67;92181.47;5108576;28;20260;-80
2023/04/17 10:30:25;;;;;;;13.33;12.20;;;;;;;14.33;73.01;92176.53;5106548;28;20216;-80
2023/04/17 10:33:14;;;;;;;13.27;11.93;;;;;;;14.32;73.21;92167.88;5106667;28;20180;-81
2023/04/17 10:35:40;;;;;;;12.83;11.60;;;;;;;14.41;73.00;92173.88;5109040;28;20224;-81
2023/04/17 10:38:07;;;;;;;12.97;11.77;;;;;;;15.40;68.38;92162.88;5108978;28;20190;-80
2023/04/17 10:40:36;;;;;;;13.67;12.53;;;;;;;15.92;65.75;92168.59;5110021;28;20235;-79
2023/04/17 10:43:03;;;;;;;11.63;10.73;;;;;;;16.00;64.42;92173.00;5109906;28;20238;-80
2023/04/17 10:45:51;;;;;;;16.30;13.37;;;;;;;15.97;65.71;92174.41;5106615;28;20232;-80
2023/04/17 10:48:39;;;;;;;13.10;12.10;;;;;;;15.91;64.68;92173.06;5109608;28;20264;-80
2023/04/17 10:51:20;;;;;;;13.27;12.20;;;;;;;16.49;63.86;92181.91;5111845;28;20228;-80
2023/04/17 10:53:46;;;;;;;13.43;12.10;;;;;;;15.86;63.62;92173.25;5113933;28;20176;-79
2023/04/17 10:56:17;;;;;;;12.30;11.20;;;;;;;16.27;60.91;92166.44;5113955;28;20219;-79
2023/04/17 10:58:56;;;;;;;13.87;12.47;;;;;;;16.46;63.45;92167.53;5112214;28;20184;-80
2023/04/17 11:01:28;;;;;;;14.60;13.50;;;;;;;16.53;60.71;92165.13;5111671;28;20235;-80
2023/04/17 11:03:54;;;;;;;13.07;12.17;;;;;;;16.17;62.09;92141.28;5114437;28;20218;-80
2023/04/17 11:06:21;;;;;;;12.23;10.97;;;;;;;16.17;62.22;92151.81;5111780;28;20226;-80
2023/04/17 11:08:48;;;;;;;13.33;11.33;;;;;;;15.66;61.43;92160.84;5112246;28;20180;-80
2023/04/17 11:11:17;;;;;;;12.57;11.57;;;;;;;15.67;64.71;92164.28;5112185;28;20224;-80
2023/04/17 11:13:46;;;;;;;12.93;11.73;;;;;;;15.36;64.85;92158.53;5112479;28;20188;-81